sensor_id;sensor_type;location;lat;lon;timestamp;temperature;humidity
5846;DHT22;2949;50.778;7.094;2023-04-01T00:00:19;11.10;99.90
5846;DHT22;2949;50.778;7.094;2023-04-01T00:02:45;11.10;99.90
5846;DHT22;2949;50.778;7.094;2023-04-01T00:05:11;11.10;99.90
5846;DHT22;2949;50.778;7.094;2023-04-01T00:07:37;11.00;99.90
5846;DHT22;2949;50.778;7.094;2023-04-01T00:10:07;11.10;99.90
5846;DHT22;2949;50.778;7.094;2023-04-01T00:12:33;11.00;99.90
5846;DHT22;2949;50.778;7.094;2023-04-01T00:15:00;11.10;99.90
5846;DHT22;2949;50.778;7.094;2023-04-01T00:17:25;11.10;99.90
5846;DHT22;2949;50.778;7.094;2023-04-01T00:19:51;11.10;99.90
5846;DHT22;2949;50.778;7.094;2023-04-01T00:22:17;11.10;99.90
5846;DHT22;2949;50.778;7.094;2023-04-01T00:24:42;11.00;99.90
5846;DHT22;2949;50.778;7.094;2023-04-01T00:27:08;11.00;99.90
5846;DHT22;2949;50.778;7.094;2023-04-01T00:29:34;11.00;99.90
5846;DHT22;2949;50.778;7.094;2023-04-01T00:32:00;11.00;99.90
5846;DHT22;2949;50.778;7.094;2023-04-01T00:34:26;11.00;99.90
5846;DHT22;2949;50.778;7.094;2023-04-01T00:36:52;11.00;99.90
5846;DHT22;2949;50.778;7.094;2023-04-01T00:39:18;11.00;99.90
5846;DHT22;2949;50.778;7.094;2023-04-01T00:41:44;11.00;99.90
5846;DHT22;2949;50.778;7.094;2023-04-01T00:44:21;11.00;99.90
5846;DHT22;2949;50.778;7.094;2023-04-01T00:46:47;11.00;99.90
5846;DHT22;2949;50.778;7.094;2023-04-01T00:49:14;11.00;99.90
5846;DHT22;2949;50.778;7.094;2023-04-01T00:51:41;11.00;99.90
5846;DHT22;2949;50.778;7.094;2023-04-01T00:54:08;11.00;99.90
5846;DHT22;2949;50.778;7.094;2023-04-01T00:56:41;10.90;99.90
5846;DHT22;2949;50.778;7.094;2023-04-01T00:59:16;10.90;99.90
5846;DHT22;2949;50.778;7.094;2023-04-01T01:01:43;10.90;99.90
5846;DHT22;2949;50.778;7.094;2023-04-01T01:12:40;10.90;99.90
5846;DHT22;2949;50.778;7.094;2023-04-01T01:15:30;10.90;99.90
5846;DHT22;2949;50.778;7.094;2023-04-01T01:20:48;10.90;99.90
5846;DHT22;2949;50.778;7.094;2023-04-01T01:23:46;11.00;99.90
5846;DHT22;2949;50.778;7.094;2023-04-01T01:26:21;11.00;99.90
5846;DHT22;2949;50.778;7.094;2023-04-01T01:29:08;10.90;99.90
5846;DHT22;2949;50.778;7.094;2023-04-01T01:31:55;10.90;99.90
5846;DHT22;2949;50.778;7.094;2023-04-01T01:37:01;10.90;99.90
5846;DHT22;2949;50.778;7.094;2023-04-01T01:39:31;10.90;99.90
5846;DHT22;2949;50.778;7.094;2023-04-01T01:42:02;10.90;99.90
5846;DHT22;2949;50.778;7.094;2023-04-01T01:44:30;10.90;99.90
5846;DHT22;2949;50.778;7.094;2023-04-01T01:46:56;10.90;99.90
5846;DHT22;2949;50.778;7.094;2023-04-01T01:49:22;10.90;99.90
5846;DHT22;2949;50.778;7.094;2023-04-01T01:51:48;10.90;99.90
5846;DHT22;2949;50.778;7.094;2023-04-01T01:54:17;10.90;99.90
5846;DHT22;2949;50.778;7.094;2023-04-01T01:56:46;10.90;99.90
5846;DHT22;2949;50.778;7.094;2023-04-01T01:59:14;10.90;99.90
5846;DHT22;2949;50.778;7.094;2023-04-01T02:01:48;10.90;99.90
5846;DHT22;2949;50.778;7.094;2023-04-01T02:04:15;10.90;99.90
5846;DHT22;2949;50.778;7.094;2023-04-01T02:06:50;10.80;99.90
5846;DHT22;2949;50.778;7.094;2023-04-01T02:09:19;10.80;99.90
5846;DHT22;2949;50.778;7.094;2023-04-01T02:11:55;10.90;99.90
5846;DHT22;2949;50.778;7.094;2023-04-01T02:14:24;10.90;99.90
5846;DHT22;2949;50.778;7.094;2023-04-01T02:16:59;10.80;99.90
5846;DHT22;2949;50.778;7.094;2023-04-01T02:19:32;10.80;99.90
5846;DHT22;2949;50.778;7.094;2023-04-01T02:22:01;10.90;99.90
5846;DHT22;2949;50.778;7.094;2023-04-01T02:24:31;10.90;99.90
5846;DHT22;2949;50.778;7.094;2023-04-01T02:26:58;10.80;99.90
5846;DHT22;2949;50.778;7.094;2023-04-01T02:29:24;10.80;99.90
5846;DHT22;2949;50.778;7.094;2023-04-01T02:31:51;10.80;99.90
5846;DHT22;2949;50.778;7.094;2023-04-01T02:34:19;10.80;99.90
5846;DHT22;2949;50.778;7.094;2023-04-01T02:36:45;10.80;99.90
5846;DHT22;2949;50.778;7.094;2023-04-01T02:39:13;10.80;99.90
5846;DHT22;2949;50.778;7.094;2023-04-01T02:41:40;10.70;99.90
5846;DHT22;2949;50.778;7.094;2023-04-01T02:44:06;10.70;99.90
5846;DHT22;2949;50.778;7.094;2023-04-01T02:46:32;10.60;99.90
5846;DHT22;2949;50.778;7.094;2023-04-01T02:48:58;10.60;99.90
5846;DHT22;2949;50.778;7.094;2023-04-01T02:51:23;10.50;99.90
5846;DHT22;2949;50.778;7.094;2023-04-01T02:53:48;10.40;99.90
5846;DHT22;2949;50.778;7.094;2023-04-01T02:56:14;10.30;99.90
5846;DHT22;2949;50.778;7.094;2023-04-01T02:58:40;10.30;99.90
5846;DHT22;2949;50.778;7.094;2023-04-01T03:01:05;10.20;99.90
5846;DHT22;2949;50.778;7.094;2023-04-01T03:03:31;10.20;99.90
5846;DHT22;2949;50.778;7.094;2023-04-01T03:05:56;10.20;99.90
5846;DHT22;2949;50.778;7.094;2023-04-01T03:08:24;10.10;99.90
5846;DHT22;2949;50.778;7.094;2023-04-01T03:10:49;10.10;99.90
5846;DHT22;2949;50.778;7.094;2023-04-01T03:13:14;10.00;99.90
5846;DHT22;2949;50.778;7.094;2023-04-01T03:15:40;10.00;99.90
5846;DHT22;2949;50.778;7.094;2023-04-01T03:18:05;9.90;99.90
5846;DHT22;2949;50.778;7.094;2023-04-01T03:20:31;9.90;99.90
5846;DHT22;2949;50.778;7.094;2023-04-01T03:22:56;9.80;99.90
5846;DHT22;2949;50.778;7.094;2023-04-01T03:25:22;9.80;99.90
5846;DHT22;2949;50.778;7.094;2023-04-01T03:27:48;9.80;99.90
5846;DHT22;2949;50.778;7.094;2023-04-01T03:30:14;9.80;99.90
5846;DHT22;2949;50.778;7.094;2023-04-01T03:32:39;9.70;99.90
5846;DHT22;2949;50.778;7.094;2023-04-01T03:35:05;9.70;99.90
5846;DHT22;2949;50.778;7.094;2023-04-01T03:37:31;9.70;99.90
5846;DHT22;2949;50.778;7.094;2023-04-01T03:39:57;9.70;99.90
5846;DHT22;2949;50.778;7.094;2023-04-01T03:42:22;9.70;99.90
5846;DHT22;2949;50.778;7.094;2023-04-01T03:44:48;9.80;99.90
5846;DHT22;2949;50.778;7.094;2023-04-01T03:47:13;9.80;99.90
5846;DHT22;2949;50.778;7.094;2023-04-01T03:49:39;9.90;99.90
5846;DHT22;2949;50.778;7.094;2023-04-01T03:52:07;9.90;99.90
5846;DHT22;2949;50.778;7.094;2023-04-01T03:54:33;9.90;99.90
5846;DHT22;2949;50.778;7.094;2023-04-01T03:56:58;10.00;99.90
5846;DHT22;2949;50.778;7.094;2023-04-01T03:59:24;10.00;99.90
5846;DHT22;2949;50.778;7.094;2023-04-01T04:01:49;10.00;99.90
5846;DHT22;2949;50.778;7.094;2023-04-01T04:04:15;10.00;99.90
5846;DHT22;2949;50.778;7.094;2023-04-01T04:06:41;10.10;99.90
5846;DHT22;2949;50.778;7.094;2023-04-01T04:09:07;10.10;99.90
5846;DHT22;2949;50.778;7.094;2023-04-01T04:11:32;10.20;99.90
5846;DHT22;2949;50.778;7.094;2023-04-01T04:13:58;10.10;99.90
5846;DHT22;2949;50.778;7.094;2023-04-01T04:16:24;10.10;99.90
5846;DHT22;2949;50.778;7.094;2023-04-01T04:18:50;10.20;99.90
5846;DHT22;2949;50.778;7.094;2023-04-01T04:21:16;10.20;99.90
5846;DHT22;2949;50.778;7.094;2023-04-01T04:23:43;10.20;99.90
5846;DHT22;2949;50.778;7.094;2023-04-01T04:26:11;10.20;99.90
5846;DHT22;2949;50.778;7.094;2023-04-01T04:28:37;10.20;99.90
5846;DHT22;2949;50.778;7.094;2023-04-01T04:31:03;10.30;99.90
5846;DHT22;2949;50.778;7.094;2023-04-01T04:33:33;10.30;99.90
5846;DHT22;2949;50.778;7.094;2023-04-01T04:36:00;10.30;99.90
5846;DHT22;2949;50.778;7.094;2023-04-01T04:38:26;10.20;99.90
5846;DHT22;2949;50.778;7.094;2023-04-01T04:40:52;10.20;99.90
5846;DHT22;2949;50.778;7.094;2023-04-01T04:43:18;10.20;99.90
5846;DHT22;2949;50.778;7.094;2023-04-01T04:45:44;10.20;99.90
5846;DHT22;2949;50.778;7.094;2023-04-01T04:48:11;10.20;99.90
5846;DHT22;2949;50.778;7.094;2023-04-01T04:50:41;10.20;99.90
5846;DHT22;2949;50.778;7.094;2023-04-01T04:53:09;10.10;99.90
5846;DHT22;2949;50.778;7.094;2023-04-01T04:55:35;10.10;99.90
5846;DHT22;2949;50.778;7.094;2023-04-01T04:58:01;10.10;99.90
5846;DHT22;2949;50.778;7.094;2023-04-01T05:00:26;10.10;99.90
5846;DHT22;2949;50.778;7.094;2023-04-01T05:02:52;10.00;99.90
5846;DHT22;2949;50.778;7.094;2023-04-01T05:05:17;10.00;99.90
5846;DHT22;2949;50.778;7.094;2023-04-01T05:07:43;10.00;99.90
5846;DHT22;2949;50.778;7.094;2023-04-01T05:10:08;10.00;99.90
5846;DHT22;2949;50.778;7.094;2023-04-01T05:12:34;9.90;99.90
5846;DHT22;2949;50.778;7.094;2023-04-01T05:15:07;9.90;99.90
5846;DHT22;2949;50.778;7.094;2023-04-01T05:17:32;9.90;99.90
5846;DHT22;2949;50.778;7.094;2023-04-01T05:19:58;9.90;99.90
5846;DHT22;2949;50.778;7.094;2023-04-01T05:22:23;9.90;99.90
5846;DHT22;2949;50.778;7.094;2023-04-01T05:24:49;9.90;99.90
5846;DHT22;2949;50.778;7.094;2023-04-01T05:27:15;9.90;99.90
5846;DHT22;2949;50.778;7.094;2023-04-01T05:29:41;9.80;99.90
5846;DHT22;2949;50.778;7.094;2023-04-01T05:32:06;9.80;99.90
5846;DHT22;2949;50.778;7.094;2023-04-01T05:34:32;9.80;99.90
5846;DHT22;2949;50.778;7.094;2023-04-01T05:36:57;9.80;99.90
5846;DHT22;2949;50.778;7.094;2023-04-01T05:39:23;9.80;99.90
5846;DHT22;2949;50.778;7.094;2023-04-01T05:41:49;9.80;99.90
5846;DHT22;2949;50.778;7.094;2023-04-01T05:44:14;9.70;99.90
5846;DHT22;2949;50.778;7.094;2023-04-01T05:46:40;9.70;99.90
5846;DHT22;2949;50.778;7.094;2023-04-01T05:49:06;9.70;99.90
5846;DHT22;2949;50.778;7.094;2023-04-01T05:51:32;9.70;99.90
5846;DHT22;2949;50.778;7.094;2023-04-01T05:53:57;9.60;99.90
5846;DHT22;2949;50.778;7.094;2023-04-01T05:56:22;9.60;99.90
5846;DHT22;2949;50.778;7.094;2023-04-01T05:58:51;9.60;99.90
5846;DHT22;2949;50.778;7.094;2023-04-01T06:01:17;9.70;99.90
5846;DHT22;2949;50.778;7.094;2023-04-01T06:03:44;9.70;99.90
5846;DHT22;2949;50.778;7.094;2023-04-01T06:06:20;9.70;99.90
5846;DHT22;2949;50.778;7.094;2023-04-01T06:08:48;9.80;99.90
5846;DHT22;2949;50.778;7.094;2023-04-01T06:11:46;9.90;99.90
5846;DHT22;2949;50.778;7.094;2023-04-01T06:14:43;9.90;99.90
5846;DHT22;2949;50.778;7.094;2023-04-01T06:22:46;10.10;99.90
5846;DHT22;2949;50.778;7.094;2023-04-01T06:32:30;10.10;99.90
5846;DHT22;2949;50.778;7.094;2023-04-01T06:43:13;10.20;99.90
5846;DHT22;2949;50.778;7.094;2023-04-01T06:54:09;10.50;99.90
5846;DHT22;2949;50.778;7.094;2023-04-01T06:56:37;10.60;99.90
5846;DHT22;2949;50.778;7.094;2023-04-01T06:59:17;10.70;99.90
5846;DHT22;2949;50.778;7.094;2023-04-01T07:01:51;10.80;99.90
5846;DHT22;2949;50.778;7.094;2023-04-01T07:04:26;10.90;99.90
5846;DHT22;2949;50.778;7.094;2023-04-01T07:06:57;11.00;99.90
5846;DHT22;2949;50.778;7.094;2023-04-01T07:09:32;11.10;99.90
5846;DHT22;2949;50.778;7.094;2023-04-01T07:12:04;11.20;99.90
5846;DHT22;2949;50.778;7.094;2023-04-01T07:14:40;11.30;99.90
5846;DHT22;2949;50.778;7.094;2023-04-01T07:17:12;11.40;99.90
5846;DHT22;2949;50.778;7.094;2023-04-01T07:20:02;11.40;99.90
5846;DHT22;2949;50.778;7.094;2023-04-01T07:22:32;11.30;99.90
5846;DHT22;2949;50.778;7.094;2023-04-01T07:25:11;11.30;99.90
5846;DHT22;2949;50.778;7.094;2023-04-01T07:27:36;11.40;99.90
5846;DHT22;2949;50.778;7.094;2023-04-01T07:30:16;11.50;99.90
5846;DHT22;2949;50.778;7.094;2023-04-01T07:32:58;11.50;99.90
5846;DHT22;2949;50.778;7.094;2023-04-01T07:35:38;11.50;99.90
5846;DHT22;2949;50.778;7.094;2023-04-01T07:49:15;11.40;99.90
5846;DHT22;2949;50.778;7.094;2023-04-01T07:51:51;11.30;99.90
5846;DHT22;2949;50.778;7.094;2023-04-01T07:57:14;11.30;99.90
5846;DHT22;2949;50.778;7.094;2023-04-01T08:00:18;11.20;99.90
5846;DHT22;2949;50.778;7.094;2023-04-01T08:05:33;11.30;99.90
5846;DHT22;2949;50.778;7.094;2023-04-01T08:13:53;11.30;99.90
5846;DHT22;2949;50.778;7.094;2023-04-01T08:19:24;11.10;99.90
5846;DHT22;2949;50.778;7.094;2023-04-01T08:21:58;11.10;99.90
5846;DHT22;2949;50.778;7.094;2023-04-01T08:24:35;11.20;99.90
5846;DHT22;2949;50.778;7.094;2023-04-01T08:27:09;11.20;99.90
5846;DHT22;2949;50.778;7.094;2023-04-01T08:29:44;11.30;99.90
5846;DHT22;2949;50.778;7.094;2023-04-01T08:32:20;11.40;99.90
5846;DHT22;2949;50.778;7.094;2023-04-01T08:37:39;11.50;99.90
5846;DHT22;2949;50.778;7.094;2023-04-01T08:43:07;11.50;99.90
5846;DHT22;2949;50.778;7.094;2023-04-01T08:45:53;11.40;99.90
5846;DHT22;2949;50.778;7.094;2023-04-01T09:00:03;11.30;99.90
5846;DHT22;2949;50.778;7.094;2023-04-01T09:02:55;11.30;99.90
5846;DHT22;2949;50.778;7.094;2023-04-01T09:08:09;11.30;99.90
5846;DHT22;2949;50.778;7.094;2023-04-01T09:11:09;11.40;99.90
5846;DHT22;2949;50.778;7.094;2023-04-01T09:22:15;11.50;99.90
5846;DHT22;2949;50.778;7.094;2023-04-01T09:25:00;11.60;99.90
5846;DHT22;2949;50.778;7.094;2023-04-01T09:27:28;11.60;99.90
5846;DHT22;2949;50.778;7.094;2023-04-01T09:33:06;11.40;99.90
5846;DHT22;2949;50.778;7.094;2023-04-01T09:35:50;11.30;99.90
5846;DHT22;2949;50.778;7.094;2023-04-01T09:38:30;11.20;99.90
5846;DHT22;2949;50.778;7.094;2023-04-01T09:41:15;11.10;99.90
5846;DHT22;2949;50.778;7.094;2023-04-01T09:43:58;11.10;99.90
5846;DHT22;2949;50.778;7.094;2023-04-01T09:46:57;11.20;99.90
5846;DHT22;2949;50.778;7.094;2023-04-01T09:52:20;11.60;99.90
5846;DHT22;2949;50.778;7.094;2023-04-01T09:55:12;11.80;99.90
5846;DHT22;2949;50.778;7.094;2023-04-01T10:06:51;11.80;99.90
5846;DHT22;2949;50.778;7.094;2023-04-01T10:09:48;12.00;99.90
5846;DHT22;2949;50.778;7.094;2023-04-01T10:15:57;12.20;99.90
5846;DHT22;2949;50.778;7.094;2023-04-01T10:21:19;12.30;99.90
5846;DHT22;2949;50.778;7.094;2023-04-01T10:24:28;12.20;99.90
5846;DHT22;2949;50.778;7.094;2023-04-01T10:30:20;12.30;99.90
5846;DHT22;2949;50.778;7.094;2023-04-01T10:44:39;12.50;99.90
5846;DHT22;2949;50.778;7.094;2023-04-01T10:47:39;12.60;99.90
5846;DHT22;2949;50.778;7.094;2023-04-01T10:53:30;12.60;99.90
5846;DHT22;2949;50.778;7.094;2023-04-01T11:13:56;13.00;99.90
5846;DHT22;2949;50.778;7.094;2023-04-01T11:19:46;12.90;99.90
5846;DHT22;2949;50.778;7.094;2023-04-01T11:33:24;13.30;99.90
5846;DHT22;2949;50.778;7.094;2023-04-01T11:36:07;13.20;99.90
5846;DHT22;2949;50.778;7.094;2023-04-01T11:38:56;13.10;99.90
5846;DHT22;2949;50.778;7.094;2023-04-01T11:44:17;13.10;99.90
5846;DHT22;2949;50.778;7.094;2023-04-01T11:55:28;13.40;99.90
5846;DHT22;2949;50.778;7.094;2023-04-01T11:58:04;13.20;99.90
5846;DHT22;2949;50.778;7.094;2023-04-01T12:09:21;13.00;99.90
5846;DHT22;2949;50.778;7.094;2023-04-01T12:15:00;13.20;99.90
5846;DHT22;2949;50.778;7.094;2023-04-01T12:20:33;13.00;99.90
5846;DHT22;2949;50.778;7.094;2023-04-01T12:25:43;12.60;99.90
5846;DHT22;2949;50.778;7.094;2023-04-01T12:31:14;12.30;99.90
5846;DHT22;2949;50.778;7.094;2023-04-01T12:34:13;12.60;99.90
5846;DHT22;2949;50.778;7.094;2023-04-01T12:42:57;13.40;99.90
5846;DHT22;2949;50.778;7.094;2023-04-01T12:57:38;13.70;99.90
5846;DHT22;2949;50.778;7.094;2023-04-01T13:08:27;13.20;99.90
5846;DHT22;2949;50.778;7.094;2023-04-01T13:16:28;13.40;99.90
5846;DHT22;2949;50.778;7.094;2023-04-01T13:19:15;13.20;99.90
5846;DHT22;2949;50.778;7.094;2023-04-01T13:24:42;12.90;99.90
5846;DHT22;2949;50.778;7.094;2023-04-01T13:30:05;13.00;99.90
5846;DHT22;2949;50.778;7.094;2023-04-01T13:32:42;13.20;99.90
5846;DHT22;2949;50.778;7.094;2023-04-01T13:43:52;13.60;99.90
5846;DHT22;2949;50.778;7.094;2023-04-01T13:49:02;13.80;99.90
5846;DHT22;2949;50.778;7.094;2023-04-01T14:05:59;13.30;99.90
5846;DHT22;2949;50.778;7.094;2023-04-01T14:20:15;13.20;99.90
5846;DHT22;2949;50.778;7.094;2023-04-01T14:26:12;12.90;99.90
5846;DHT22;2949;50.778;7.094;2023-04-01T14:42:20;12.50;99.90
5846;DHT22;2949;50.778;7.094;2023-04-01T14:48:07;12.30;99.90
5846;DHT22;2949;50.778;7.094;2023-04-01T14:50:46;12.30;99.90
5846;DHT22;2949;50.778;7.094;2023-04-01T14:55:56;12.40;99.90
5846;DHT22;2949;50.778;7.094;2023-04-01T14:58:24;12.40;99.90
5846;DHT22;2949;50.778;7.094;2023-04-01T15:01:25;12.40;99.90
5846;DHT22;2949;50.778;7.094;2023-04-01T15:04:03;12.40;99.90
5846;DHT22;2949;50.778;7.094;2023-04-01T15:07:09;12.40;99.90
5846;DHT22;2949;50.778;7.094;2023-04-01T15:20:31;12.40;99.90
5846;DHT22;2949;50.778;7.094;2023-04-01T15:23:25;12.30;99.90
5846;DHT22;2949;50.778;7.094;2023-04-01T15:26:27;12.20;99.90
5846;DHT22;2949;50.778;7.094;2023-04-01T15:32:07;12.10;99.90
5846;DHT22;2949;50.778;7.094;2023-04-01T15:37:44;12.00;99.90
5846;DHT22;2949;50.778;7.094;2023-04-01T15:43:41;11.90;99.90
5846;DHT22;2949;50.778;7.094;2023-04-01T15:46:31;11.80;99.90
5846;DHT22;2949;50.778;7.094;2023-04-01T15:54:54;12.00;99.90
5846;DHT22;2949;50.778;7.094;2023-04-01T16:00:18;12.00;99.90
5846;DHT22;2949;50.778;7.094;2023-04-01T16:02:48;11.80;99.90
5846;DHT22;2949;50.778;7.094;2023-04-01T16:05:51;11.70;99.90
5846;DHT22;2949;50.778;7.094;2023-04-01T16:11:34;11.70;99.90
5846;DHT22;2949;50.778;7.094;2023-04-01T16:19:52;11.80;99.90
5846;DHT22;2949;50.778;7.094;2023-04-01T16:25:14;11.60;99.90
5846;DHT22;2949;50.778;7.094;2023-04-01T16:30:23;11.50;99.90
5846;DHT22;2949;50.778;7.094;2023-04-01T16:38:20;11.50;99.90
5846;DHT22;2949;50.778;7.094;2023-04-01T16:41:00;11.60;99.90
5846;DHT22;2949;50.778;7.094;2023-04-01T16:43:38;11.50;99.90
5846;DHT22;2949;50.778;7.094;2023-04-01T16:46:26;11.50;99.90
5846;DHT22;2949;50.778;7.094;2023-04-01T16:54:52;11.20;99.90
5846;DHT22;2949;50.778;7.094;2023-04-01T16:57:28;11.10;99.90
5846;DHT22;2949;50.778;7.094;2023-04-01T17:01:04;11.10;99.90
5846;DHT22;2949;50.778;7.094;2023-04-01T17:11:20;10.80;99.90
5846;DHT22;2949;50.778;7.094;2023-04-01T17:14:18;10.90;99.90
5846;DHT22;2949;50.778;7.094;2023-04-01T17:17:24;10.90;99.90
5846;DHT22;2949;50.778;7.094;2023-04-01T17:20:02;11.00;99.90
5846;DHT22;2949;50.778;7.094;2023-04-01T17:22:52;10.90;99.90
5846;DHT22;2949;50.778;7.094;2023-04-01T17:25:46;10.90;99.90
5846;DHT22;2949;50.778;7.094;2023-04-01T17:28:33;10.90;99.90
5846;DHT22;2949;50.778;7.094;2023-04-01T17:33:53;10.80;99.90
5846;DHT22;2949;50.778;7.094;2023-04-01T17:36:40;10.80;99.90
5846;DHT22;2949;50.778;7.094;2023-04-01T17:39:33;10.70;99.90
5846;DHT22;2949;50.778;7.094;2023-04-01T17:47:13;10.60;99.90
5846;DHT22;2949;50.778;7.094;2023-04-01T17:52:42;10.50;99.90
5846;DHT22;2949;50.778;7.094;2023-04-01T17:55:26;10.40;99.90
5846;DHT22;2949;50.778;7.094;2023-04-01T18:03:54;10.20;99.90
5846;DHT22;2949;50.778;7.094;2023-04-01T18:09:29;10.20;99.90
5846;DHT22;2949;50.778;7.094;2023-04-01T18:14:57;10.20;99.90
5846;DHT22;2949;50.778;7.094;2023-04-01T18:20:47;10.20;99.90
5846;DHT22;2949;50.778;7.094;2023-04-01T18:25:48;10.10;99.90
5846;DHT22;2949;50.778;7.094;2023-04-01T18:28:22;10.10;99.90
5846;DHT22;2949;50.778;7.094;2023-04-01T18:30:53;10.00;99.90
5846;DHT22;2949;50.778;7.094;2023-04-01T18:33:34;10.00;99.90
5846;DHT22;2949;50.778;7.094;2023-04-01T18:39:08;9.90;99.90
5846;DHT22;2949;50.778;7.094;2023-04-01T18:52:44;9.80;99.90
5846;DHT22;2949;50.778;7.094;2023-04-01T18:55:40;9.80;99.90
5846;DHT22;2949;50.778;7.094;2023-04-01T19:04:45;9.80;99.90
5846;DHT22;2949;50.778;7.094;2023-04-01T19:10:11;9.80;99.90
5846;DHT22;2949;50.778;7.094;2023-04-01T19:18:35;9.70;99.90
5846;DHT22;2949;50.778;7.094;2023-04-01T19:27:23;9.70;99.90
5846;DHT22;2949;50.778;7.094;2023-04-01T19:32:42;9.70;99.90
5846;DHT22;2949;50.778;7.094;2023-04-01T19:35:33;9.70;99.90
5846;DHT22;2949;50.778;7.094;2023-04-01T19:38:14;9.70;99.90
5846;DHT22;2949;50.778;7.094;2023-04-01T19:43:44;9.60;99.90
5846;DHT22;2949;50.778;7.094;2023-04-01T19:46:19;9.60;99.90
5846;DHT22;2949;50.778;7.094;2023-04-01T19:57:42;9.60;99.90
5846;DHT22;2949;50.778;7.094;2023-04-01T20:05:38;9.50;99.90
5846;DHT22;2949;50.778;7.094;2023-04-01T20:13:58;9.60;99.90
5846;DHT22;2949;50.778;7.094;2023-04-01T20:16:58;9.60;99.90
5846;DHT22;2949;50.778;7.094;2023-04-01T20:19:53;9.50;99.90
5846;DHT22;2949;50.778;7.094;2023-04-01T20:24:51;9.50;99.90
5846;DHT22;2949;50.778;7.094;2023-04-01T20:27:24;9.50;99.90
5846;DHT22;2949;50.778;7.094;2023-04-01T20:36:24;9.50;99.90
5846;DHT22;2949;50.778;7.094;2023-04-01T20:44:42;9.40;99.90
5846;DHT22;2949;50.778;7.094;2023-04-01T20:53:04;9.40;99.90
5846;DHT22;2949;50.778;7.094;2023-04-01T21:03:59;9.40;99.90
5846;DHT22;2949;50.778;7.094;2023-04-01T21:06:44;9.30;99.90
5846;DHT22;2949;50.778;7.094;2023-04-01T21:12:20;9.30;99.90
5846;DHT22;2949;50.778;7.094;2023-04-01T21:17:42;9.30;99.90
5846;DHT22;2949;50.778;7.094;2023-04-01T21:29:31;9.20;99.90
5846;DHT22;2949;50.778;7.094;2023-04-01T21:35:37;9.20;99.90
5846;DHT22;2949;50.778;7.094;2023-04-01T21:38:27;9.20;99.90
5846;DHT22;2949;50.778;7.094;2023-04-01T21:49:56;9.20;99.90
5846;DHT22;2949;50.778;7.094;2023-04-01T21:58:50;9.10;99.90
5846;DHT22;2949;50.778;7.094;2023-04-01T22:04:39;9.10;99.90
5846;DHT22;2949;50.778;7.094;2023-04-01T22:07:13;9.10;99.90
5846;DHT22;2949;50.778;7.094;2023-04-01T22:09:52;9.10;99.90
5846;DHT22;2949;50.778;7.094;2023-04-01T22:12:28;9.10;99.90
5846;DHT22;2949;50.778;7.094;2023-04-01T22:15:14;9.10;99.90
5846;DHT22;2949;50.778;7.094;2023-04-01T22:17:53;9.10;99.90
5846;DHT22;2949;50.778;7.094;2023-04-01T22:21:38;9.10;99.90
5846;DHT22;2949;50.778;7.094;2023-04-01T22:26:37;9.10;99.90
5846;DHT22;2949;50.778;7.094;2023-04-01T22:29:36;9.10;99.90
5846;DHT22;2949;50.778;7.094;2023-04-01T22:32:13;9.10;99.90
5846;DHT22;2949;50.778;7.094;2023-04-01T22:35:07;9.10;99.90
5846;DHT22;2949;50.778;7.094;2023-04-01T22:37:45;9.10;99.90
5846;DHT22;2949;50.778;7.094;2023-04-01T22:40:30;9.10;99.90
5846;DHT22;2949;50.778;7.094;2023-04-01T22:42:59;9.10;99.90
5846;DHT22;2949;50.778;7.094;2023-04-01T22:50:40;9.00;99.90
5846;DHT22;2949;50.778;7.094;2023-04-01T22:55:54;9.00;99.90
5846;DHT22;2949;50.778;7.094;2023-04-01T22:58:30;9.00;99.90
5846;DHT22;2949;50.778;7.094;2023-04-01T23:04:16;9.00;99.90
5846;DHT22;2949;50.778;7.094;2023-04-01T23:06:51;9.00;99.90
5846;DHT22;2949;50.778;7.094;2023-04-01T23:09:24;9.00;99.90
5846;DHT22;2949;50.778;7.094;2023-04-01T23:12:09;9.00;99.90
5846;DHT22;2949;50.778;7.094;2023-04-01T23:14:46;9.00;99.90
5846;DHT22;2949;50.778;7.094;2023-04-01T23:17:38;9.00;99.90
5846;DHT22;2949;50.778;7.094;2023-04-01T23:23:35;9.00;99.90
5846;DHT22;2949;50.778;7.094;2023-04-01T23:29:01;9.00;99.90
5846;DHT22;2949;50.778;7.094;2023-04-01T23:31:37;9.00;99.90
5846;DHT22;2949;50.778;7.094;2023-04-01T23:36:46;9.00;99.90
5846;DHT22;2949;50.778;7.094;2023-04-01T23:41:48;9.00;99.90
5846;DHT22;2949;50.778;7.094;2023-04-01T23:44:15;9.00;99.90
5846;DHT22;2949;50.778;7.094;2023-04-01T23:46:42;9.00;99.90
5846;DHT22;2949;50.778;7.094;2023-04-01T23:53:04;9.00;99.90
5846;DHT22;2949;50.778;7.094;2023-04-01T23:55:32;9.00;99.90
